Time;durP1;ratioP1;P1;durP2;ratioP2;P2;SDS_P1;SDS_P2;PMS_P1;PMS_P2;Temp;Humidity;BMP_temperature;BMP_pressure;BME280_temperature;BME280_humidity;BME280_pressure;Samples;Min_cycle;Max_cycle;Signal;HPM_P1;HPM_P2
2022/01/28 00:01:51;;;;;;;;;;;;;;;3.88;85.51;102892.69;5053985;28;20376;-54
2022/01/28 00:04:17;;;;;;;22.10;7.43;;;;;;;3.77;85.00;102905.13;5053092;28;19919;-54
2022/01/28 00:06:43;;;;;;;17.73;6.95;;;;;;;3.73;85.03;102904.69;5052924;28;20104;-54
2022/01/28 00:09:08;;;;;;;19.33;7.75;;;;;;;3.74;84.64;102908.28;5051932;28;20104;-54
2022/01/28 00:11:34;;;;;;;21.65;7.82;;;;;;;3.82;83.93;102910.81;5053331;28;20029;-55
2022/01/28 00:14:52;;;;;;;20.88;7.80;;;;;;;3.87;83.21;102923.88;5053212;28;20120;-54
2022/01/28 00:38:44;;;;;;;21.27;7.28;;;;;;;3.73;83.88;102912.88;5052014;28;20686;-56
2022/01/28 00:41:10;;;;;;;21.38;7.50;;;;;;;3.65;84.07;102918.56;5053023;28;20021;-56
2022/01/28 00:43:35;;;;;;;21.30;7.20;;;;;;;3.70;84.71;102918.81;5052828;28;20044;-56
2022/01/28 00:46:00;;;;;;;18.52;7.50;;;;;;;3.71;84.79;102925.09;5052457;28;20112;-56
2022/01/28 00:48:26;;;;;;;17.83;7.25;;;;;;;3.76;84.10;102928.06;5050927;28;20032;-53
2022/01/28 00:50:51;;;;;;;17.75;7.68;;;;;;;3.74;84.93;102914.56;5052294;28;20423;-54
2022/01/28 00:53:16;;;;;;;19.30;7.05;;;;;;;3.73;85.33;102920.28;5054299;28;20056;-53
2022/01/28 00:55:41;;;;;;;18.35;6.93;;;;;;;3.65;85.40;102917.75;5056569;28;20021;-53
2022/01/28 00:58:07;;;;;;;15.88;6.45;;;;;;;3.74;85.03;102932.91;5056715;28;20033;-55
2022/01/28 01:00:32;;;;;;;19.60;7.30;;;;;;;3.63;85.50;102922.56;5055777;28;20082;-53
2022/01/28 01:02:57;;;;;;;21.95;7.22;;;;;;;3.71;85.15;102925.09;5056212;28;20065;-56
2022/01/28 01:05:23;;;;;;;15.25;7.85;;;;;;;3.80;84.49;102925.75;5056558;28;20024;-53
2022/01/28 01:07:49;;;;;;;18.85;6.88;;;;;;;3.74;84.69;102924.69;5056737;28;20029;-55
2022/01/28 01:10:15;;;;;;;16.52;6.40;;;;;;;3.71;84.99;102930.59;5056543;28;20104;-56
2022/01/28 01:12:44;;;;;;;18.23;6.72;;;;;;;3.70;85.22;102924.28;5056036;28;20465;-55
2022/01/28 01:15:12;;;;;;;17.25;6.80;;;;;;;3.69;85.30;102924.47;5056589;28;20029;-55
2022/01/28 01:17:48;;;;;;;15.55;7.00;;;;;;;3.77;84.91;102918.81;5056275;28;20048;-54
2022/01/28 01:20:41;;;;;;;18.88;7.07;;;;;;;3.66;84.79;102924.91;5056263;28;20419;-56
2022/01/28 01:23:15;;;;;;;24.52;6.63;;;;;;;3.71;84.52;102922.38;5056349;28;20064;-57
2022/01/28 01:25:50;;;;;;;18.00;6.78;;;;;;;3.64;84.82;102924.25;5056046;28;20062;-55
2022/01/28 01:28:19;;;;;;;20.70;7.05;;;;;;;3.69;84.46;102951.84;5053845;28;20182;-55
2022/01/28 01:30:45;;;;;;;19.55;6.90;;;;;;;3.69;84.29;102954.56;5056103;28;20097;-55
2022/01/28 01:33:11;;;;;;;20.63;6.85;;;;;;;3.70;84.63;102948.06;5055648;28;20025;-55
2022/01/28 01:35:38;;;;;;;20.27;7.60;;;;;;;3.71;84.82;102949.75;5055960;28;20491;-53
2022/01/28 01:38:03;;;;;;;21.95;7.03;;;;;;;3.70;85.17;102948.91;5056314;28;20028;-54
2022/01/28 01:40:35;;;;;;;19.73;7.97;;;;;;;3.70;85.00;102962.59;5055710;28;20107;-55
2022/01/28 01:43:16;;;;;;;23.33;7.80;;;;;;;3.75;84.65;102973.75;5055859;28;20025;-56
2022/01/28 01:53:53;;;;;;;18.33;7.18;;;;;;;3.81;84.99;102985.78;5055393;28;20056;-55
2022/01/28 01:56:20;;;;;;;17.38;8.05;;;;;;;3.79;84.15;102996.09;5055885;28;20017;-59
2022/01/28 01:58:45;;;;;;;20.20;7.15;;;;;;;3.78;84.68;102993.56;5054881;28;20033;-56
2022/01/28 02:01:11;;;;;;;20.80;7.32;;;;;;;3.73;85.52;103000.50;5055462;28;20031;-55
2022/01/28 02:03:36;;;;;;;19.65;7.40;;;;;;;3.79;84.36;103000.72;5055204;28;20024;-54
2022/01/28 02:06:03;;;;;;;21.25;7.43;;;;;;;3.85;84.42;102999.91;5054982;28;20029;-54
2022/01/28 02:08:31;;;;;;;21.67;7.25;;;;;;;3.82;85.22;102995.69;5055517;28;20032;-54
2022/01/28 02:10:58;;;;;;;19.90;7.32;;;;;;;3.71;85.11;103005.34;5055116;28;20149;-54
2022/01/28 02:13:25;;;;;;;25.00;8.20;;;;;;;3.78;85.14;103012.72;5055050;28;20094;-55
2022/01/28 02:15:51;;;;;;;19.02;7.53;;;;;;;3.83;84.99;103011.06;5054957;28;20029;-55
2022/01/28 02:18:16;;;;;;;20.42;7.68;;;;;;;3.75;85.27;103016.75;5055582;28;20029;-55
2022/01/28 02:20:43;;;;;;;21.58;7.60;;;;;;;3.77;84.89;103011.91;5055295;28;20120;-54
2022/01/28 02:23:09;;;;;;;23.50;7.60;;;;;;;3.77;86.06;103014.63;5055439;28;20028;-55
2022/01/28 02:25:34;;;;;;;19.13;6.88;;;;;;;3.82;85.23;103017.59;5055511;28;20032;-56
2022/01/28 02:28:06;;;;;;;19.95;7.18;;;;;;;3.74;85.72;103028.72;5054810;28;20100;-58
2022/01/28 02:30:32;;;;;;;20.58;7.72;;;;;;;3.86;85.08;103020.75;5053506;28;20454;-57
2022/01/28 02:33:08;;;;;;;17.20;7.50;;;;;;;3.87;85.14;103022.44;5054752;28;20437;-57
2022/01/28 02:35:33;;;;;;;23.55;7.97;;;;;;;3.75;85.50;103020.31;5055266;28;20037;-57
2022/01/28 02:37:58;;;;;;;21.30;7.05;;;;;;;3.84;86.02;103025.59;5055046;28;20025;-56
2022/01/28 02:40:24;;;;;;;21.85;7.60;;;;;;;3.80;86.14;103038.03;5055117;28;20036;-58
2022/01/28 02:43:01;;;;;;;20.08;7.15;;;;;;;3.81;85.95;103034.22;5054785;28;20028;-58
2022/01/28 02:45:31;;;;;;;21.52;7.20;;;;;;;3.77;86.21;103046.63;5054788;28;20029;-58
2022/01/28 02:48:01;;;;;;;17.60;7.57;;;;;;;3.76;86.22;103048.53;5052498;28;20431;-57
2022/01/28 02:50:30;;;;;;;21.27;7.28;;;;;;;3.80;86.04;103047.06;5054627;28;20068;-54
2022/01/28 02:53:05;;;;;;;19.02;7.88;;;;;;;3.79;86.00;103047.28;5054068;28;20053;-54
2022/01/28 02:55:35;;;;;;;20.55;8.02;;;;;;;3.82;86.10;103044.97;5054712;28;20044;-54
2022/01/28 02:58:43;;;;;;;23.85;8.30;;;;;;;3.81;86.38;103046.03;5055008;28;20029;-55
2022/01/28 03:00:49;;;;;;;17.67;7.78;;;;;;;3.75;86.60;103047.69;5050802;28;20048;-55
2022/01/28 03:03:18;;;;;;;18.20;7.45;;;;;;;3.83;86.49;103059.50;5054409;28;20021;-54
2022/01/28 03:05:44;;;;;;;20.73;7.88;;;;;;;3.80;86.36;103055.28;5054213;28;20017;-55
2022/01/28 03:08:10;;;;;;;17.20;7.07;;;;;;;3.85;86.80;103066.47;5054400;28;20032;-56
2022/01/28 03:15:33;;;;;;;18.58;7.97;;;;;;;3.86;86.69;103067.31;5052969;28;20461;-55
2022/01/28 03:18:14;;;;;;;19.83;7.60;;;;;;;3.79;86.57;103066.44;5052499;28;20112;-55
2022/01/28 03:20:56;;;;;;;17.88;7.22;;;;;;;3.81;86.97;103069.84;5053618;28;20051;-55
2022/01/28 03:23:21;;;;;;;24.90;8.10;;;;;;;3.79;87.51;103069.19;5053709;28;20112;-54
2022/01/28 03:25:48;;;;;;;21.25;8.20;;;;;;;3.77;86.65;103066.66;5054009;28;20084;-56
2022/01/28 03:28:15;;;;;;;20.48;7.45;;;;;;;3.77;86.91;103066.66;5053896;28;20021;-55
2022/01/28 03:30:40;;;;;;;22.90;7.50;;;;;;;3.77;87.22;103065.81;5053682;28;20025;-56
2022/01/28 03:33:06;;;;;;;20.20;8.02;;;;;;;3.80;86.76;103070.88;5053452;28;20029;-56
2022/01/28 03:35:34;;;;;;;19.30;7.60;;;;;;;3.75;87.93;103074.22;5054176;28;20076;-56
2022/01/28 03:38:00;;;;;;;20.30;7.10;;;;;;;3.77;87.69;103068.53;5053597;28;20079;-56
2022/01/28 03:40:33;;;;;;;19.40;7.90;;;;;;;3.81;87.01;103072.56;5054092;28;20035;-56
2022/01/28 03:42:59;;;;;;;22.38;7.80;;;;;;;3.68;87.85;103078.84;5053472;28;20605;-56
2022/01/28 03:45:24;;;;;;;20.30;7.68;;;;;;;3.58;87.95;103080.06;5052103;28;20021;-54
2022/01/28 03:47:49;;;;;;;19.27;7.40;;;;;;;3.62;88.22;103069.56;5053174;28;20472;-56
2022/01/28 03:50:15;;;;;;;22.02;7.90;;;;;;;3.57;88.64;103080.25;5053765;28;20029;-56
2022/01/28 03:52:40;;;;;;;18.92;8.05;;;;;;;3.55;89.33;103083.19;5053716;28;20052;-56
2022/01/28 03:55:06;;;;;;;18.58;7.95;;;;;;;3.54;89.85;103084.25;5053150;28;20057;-56
2022/01/28 03:57:31;;;;;;;19.38;7.75;;;;;;;3.50;89.52;103088.44;5053364;28;20170;-55
2022/01/28 03:59:57;;;;;;;20.33;7.47;;;;;;;3.45;90.32;103085.47;5053271;28;20017;-56
2022/01/28 04:02:27;;;;;;;22.05;8.80;;;;;;;3.41;90.25;103079.56;5052176;28;20052;-56
2022/01/28 04:12:53;;;;;;;20.10;7.80;;;;;;;3.39;91.11;103092.59;5053328;28;20178;-54
2022/01/28 04:15:35;;;;;;;21.67;7.40;;;;;;;3.35;91.01;103085.00;5053546;28;20028;-56
2022/01/28 04:18:01;;;;;;;17.35;7.18;;;;;;;3.37;91.32;103081.00;5053236;28;20107;-56
2022/01/28 04:20:27;;;;;;;16.10;7.40;;;;;;;3.42;90.67;103089.47;5052879;28;20151;-56
2022/01/28 04:22:52;;;;;;;19.40;7.97;;;;;;;3.39;91.01;103089.84;5053162;28;20017;-52
2022/01/28 04:25:17;;;;;;;20.73;7.97;;;;;;;3.37;90.68;103089.22;5051371;28;20025;-52
2022/01/28 04:27:42;;;;;;;20.33;8.30;;;;;;;3.38;91.22;103081.88;5052625;28;20036;-55
2022/01/28 04:30:08;;;;;;;19.58;7.63;;;;;;;3.42;90.87;103080.38;5052735;28;20017;-53
2022/01/28 04:32:35;;;;;;;22.13;7.53;;;;;;;3.37;91.39;103091.94;5052803;28;20036;-55
2022/01/28 04:35:00;;;;;;;18.92;7.63;;;;;;;3.45;90.68;103092.84;5051699;28;20029;-55
2022/01/28 04:45:24;;;;;;;17.80;7.40;;;;;;;3.41;91.26;103122.47;5052573;28;20033;-54
2022/01/28 04:50:38;;;;;;;20.42;8.05;;;;;;;3.38;91.37;103121.00;5052751;28;20033;-53
2022/01/28 04:53:17;;;;;;;20.10;8.00;;;;;;;3.41;91.36;103117.00;5052494;28;20267;-54
2022/01/28 04:56:07;;;;;;;20.92;8.10;;;;;;;3.50;91.01;103123.16;5052636;28;20020;-55
2022/01/28 05:01:41;;;;;;;19.67;7.60;;;;;;;3.48;90.76;103120.66;5052472;28;20069;-54
2022/01/28 05:12:31;;;;;;;17.48;7.57;;;;;;;3.31;92.00;103128.31;5052459;28;20040;-54
2022/01/28 05:25:47;;;;;;;19.63;7.93;;;;;;;3.07;92.77;103160.56;5051812;28;20507;-54
2022/01/28 05:28:04;;;;;;;18.75;8.10;;;;;;;3.12;93.11;103155.34;5051606;28;20033;-54
2022/01/28 05:30:29;;;;;;;19.23;7.45;;;;;;;3.17;92.83;103167.56;5052309;28;20051;-54
2022/01/28 05:32:54;;;;;;;18.17;7.70;;;;;;;3.20;93.77;103168.03;5052676;28;20040;-54
2022/01/28 05:35:20;;;;;;;22.00;8.18;;;;;;;3.26;93.70;103155.44;5052613;28;20021;-55
2022/01/28 05:37:45;;;;;;;18.30;7.07;;;;;;;3.21;93.83;103171.59;5052095;28;20033;-51
2022/01/28 05:40:11;;;;;;;17.15;7.80;;;;;;;3.22;93.91;103184.25;5053510;28;20029;-55
2022/01/28 05:42:36;;;;;;;20.90;8.02;;;;;;;3.23;94.40;103181.28;5055713;28;20055;-55
2022/01/28 05:45:02;;;;;;;21.10;8.05;;;;;;;3.12;95.21;103181.84;5055640;28;20069;-54
2022/01/28 05:47:27;;;;;;;19.90;7.47;;;;;;;3.06;95.65;103186.25;5055646;28;20029;-52
2022/01/28 05:49:53;;;;;;;18.40;7.90;;;;;;;3.01;95.64;103185.97;5056292;28;20469;-54
2022/01/28 05:52:18;;;;;;;18.08;7.70;;;;;;;3.04;95.27;103201.13;5055343;28;20056;-53
2022/01/28 05:54:43;;;;;;;16.88;7.10;;;;;;;2.96;95.59;103200.22;5055224;28;20051;-55
2022/01/28 05:57:08;;;;;;;18.95;7.57;;;;;;;2.91;94.88;103197.25;5055549;28;20091;-53
2022/01/28 05:59:34;;;;;;;22.88;7.60;;;;;;;2.91;95.03;103205.47;5055678;28;20032;-55
2022/01/28 06:01:59;;;;;;;24.02;8.25;;;;;;;3.00;94.61;103211.63;5055115;28;20055;-54
2022/01/28 06:04:25;;;;;;;20.13;7.72;;;;;;;2.96;94.53;103211.16;5054257;28;20052;-55
2022/01/28 06:06:50;;;;;;;20.88;7.45;;;;;;;2.97;94.12;103218.34;5055759;28;20446;-55
2022/01/28 06:09:15;;;;;;;18.23;7.35;;;;;;;2.92;94.08;103217.22;5055699;28;20045;-55
2022/01/28 06:11:43;;;;;;;21.30;7.43;;;;;;;2.89;93.72;103217.59;5055683;28;20039;-55
2022/01/28 06:14:09;;;;;;;19.35;7.10;;;;;;;2.87;94.49;103216.97;5055885;28;20025;-53
2022/01/28 06:16:34;;;;;;;19.25;7.10;;;;;;;2.86;94.09;103220.75;5055631;28;20377;-55
2022/01/28 06:18:59;;;;;;;18.38;7.70;;;;;;;2.90;93.85;103230.25;5055639;28;20499;-55
2022/01/28 06:21:24;;;;;;;19.98;7.60;;;;;;;2.83;94.08;103229.34;5055371;28;20230;-58
2022/01/28 06:23:52;;;;;;;18.92;7.20;;;;;;;2.79;94.11;103234.34;5055351;28;20082;-53
2022/01/28 06:26:17;;;;;;;21.75;6.90;;;;;;;2.72;94.27;103239.75;5055284;28;20036;-55
2022/01/28 06:28:42;;;;;;;20.95;6.78;;;;;;;2.67;93.26;103244.09;5054922;28;20021;-54
2022/01/28 06:31:07;;;;;;;17.23;6.53;;;;;;;2.62;94.17;103245.53;5055093;28;20070;-55
2022/01/28 06:33:33;;;;;;;18.67;6.82;;;;;;;2.67;94.58;103250.44;5055181;28;20081;-53
2022/01/28 06:35:58;;;;;;;19.02;7.07;;;;;;;2.61;94.20;103262.13;5055270;28;20021;-55
2022/01/28 06:38:23;;;;;;;19.83;7.25;;;;;;;2.57;93.70;103264.38;5055251;28;20061;-55
2022/01/28 06:40:50;;;;;;;19.20;6.80;;;;;;;2.60;94.39;103274.09;5055106;28;20021;-55
2022/01/28 06:43:15;;;;;;;19.15;7.43;;;;;;;2.61;94.16;103282.09;5055295;28;20025;-55
2022/01/28 06:45:42;;;;;;;21.95;7.18;;;;;;;2.59;93.97;103286.91;5054646;28;20036;-54
2022/01/28 06:48:11;;;;;;;16.05;7.20;;;;;;;2.57;93.62;103278.06;5054981;28;20040;-56
2022/01/28 06:50:44;;;;;;;19.08;6.80;;;;;;;2.56;94.08;103281.00;5054508;28;20503;-53
2022/01/28 06:53:11;;;;;;;22.08;7.05;;;;;;;2.55;94.47;103277.38;5054917;28;20045;-53
2022/01/28 06:55:37;;;;;;;18.00;7.40;;;;;;;2.57;94.06;103288.16;5054739;28;20037;-47
2022/01/28 06:58:04;;;;;;;23.15;7.82;;;;;;;2.52;93.79;103286.00;5054893;28;20071;-50
2022/01/28 07:00:36;;;;;;;21.10;7.47;;;;;;;2.52;93.65;103293.31;5054710;28;20028;-53
2022/01/28 07:03:01;;;;;;;20.23;7.60;;;;;;;2.53;93.98;103292.28;5054743;28;20079;-53
2022/01/28 07:05:26;;;;;;;21.88;7.63;;;;;;;2.48;93.52;103295.59;5054254;28;20028;-53
2022/01/28 07:07:52;;;;;;;22.80;7.43;;;;;;;2.47;93.88;103296.63;5054447;28;20033;-50
2022/01/28 07:10:17;;;;;;;18.27;7.22;;;;;;;2.53;94.32;103305.94;5054354;28;20037;-53
2022/01/28 07:12:42;;;;;;;24.65;7.90;;;;;;;2.49;93.96;103300.03;5051697;28;20059;-50
2022/01/28 07:15:08;;;;;;;20.30;7.18;;;;;;;2.55;93.86;103309.34;5052390;28;20396;-50
2022/01/28 07:17:33;;;;;;;21.50;7.20;;;;;;;2.59;93.41;103313.41;5052172;28;20036;-53
2022/01/28 07:19:59;;;;;;;21.08;6.97;;;;;;;2.57;92.81;103319.03;5052027;28;20071;-50
2022/01/28 07:22:24;;;;;;;19.60;7.03;;;;;;;2.53;92.83;103315.03;5051616;28;20029;-52
2022/01/28 07:24:49;;;;;;;21.17;7.63;;;;;;;2.45;92.66;103323.31;5051908;28;20025;-52
2022/01/28 07:27:19;;;;;;;22.83;7.90;;;;;;;2.40;93.28;103332.09;5049962;28;20075;-50
2022/01/28 07:29:47;;;;;;;25.45;8.68;;;;;;;2.33;93.19;103325.66;5050456;28;20450;-51
2022/01/28 07:32:12;;;;;;;23.83;8.40;;;;;;;2.25;93.28;103334.81;5054028;28;20025;-53
2022/01/28 07:34:40;;;;;;;19.83;8.40;;;;;;;2.17;92.75;103330.31;5053754;28;20100;-53
2022/01/28 07:37:05;;;;;;;23.17;8.50;;;;;;;2.10;93.52;103336.69;5053501;28;20035;-53
2022/01/28 07:39:30;;;;;;;22.98;8.40;;;;;;;2.08;93.69;103352.44;5052957;28;20028;-54
2022/01/28 07:41:56;;;;;;;21.52;8.93;;;;;;;2.05;94.17;103350.06;5053652;28;20024;-52
2022/01/28 07:44:22;;;;;;;23.23;9.18;;;;;;;2.05;94.50;103352.81;5053779;28;20074;-52
2022/01/28 07:46:47;;;;;;;20.98;8.77;;;;;;;2.03;93.69;103359.28;5053965;28;20429;-53
2022/01/28 07:49:12;;;;;;;20.45;8.23;;;;;;;2.02;94.10;103360.31;5053787;28;20021;-53
2022/01/28 07:51:38;;;;;;;21.05;8.05;;;;;;;1.98;93.98;103369.06;5053044;28;20033;-54
2022/01/28 07:54:04;;;;;;;22.30;8.10;;;;;;;1.93;93.86;103355.97;5053517;28;20041;-53
2022/01/28 07:56:29;;;;;;;17.95;7.88;;;;;;;1.90;93.55;103367.25;5053659;28;20104;-54
2022/01/28 07:58:54;;;;;;;25.58;8.10;;;;;;;1.85;93.87;103365.09;5053574;28;20052;-49
2022/01/28 08:01:20;;;;;;;16.42;7.78;;;;;;;1.77;94.47;103362.44;5053285;28;20028;-53
2022/01/28 08:03:45;;;;;;;22.70;8.30;;;;;;;1.73;94.56;103363.88;5053335;28;20025;-53
2022/01/28 08:06:10;;;;;;;21.17;8.45;;;;;;;1.71;95.24;103374.94;5053152;28;20065;-53
2022/01/28 08:08:35;;;;;;;22.42;8.10;;;;;;;1.66;94.93;103374.66;5053157;28;20029;-52
2022/01/28 08:11:01;;;;;;;26.00;8.35;;;;;;;1.68;94.38;103379.91;5053014;28;20020;-52
2022/01/28 08:13:26;;;;;;;23.60;8.13;;;;;;;1.65;95.23;103377.59;5053454;28;20391;-51
2022/01/28 08:15:51;;;;;;;20.25;7.65;;;;;;;1.65;95.19;103388.50;5053551;28;20032;-51
2022/01/28 08:18:16;;;;;;;18.05;7.60;;;;;;;1.70;95.43;103395.06;5053261;28;20033;-53
2022/01/28 08:20:43;;;;;;;19.08;7.68;;;;;;;1.77;95.74;103400.66;5053311;28;20025;-53
2022/01/28 08:23:09;;;;;;;21.92;8.30;;;;;;;1.86;95.65;103404.16;5053309;28;20032;-53
2022/01/28 08:25:35;;;;;;;19.85;7.75;;;;;;;1.95;95.48;103411.25;5053440;28;20029;-51
2022/01/28 08:28:02;;;;;;;20.13;7.38;;;;;;;2.00;95.10;103414.25;5052947;28;20473;-51
2022/01/28 08:30:29;;;;;;;20.65;7.70;;;;;;;2.05;95.00;103410.16;5053236;28;20028;-53
2022/01/28 08:32:55;;;;;;;18.75;7.70;;;;;;;2.09;94.71;103412.31;5051741;28;20024;-50
2022/01/28 08:35:29;;;;;;;24.15;8.35;;;;;;;2.07;95.15;103405.34;5053286;28;20033;-53
2022/01/28 08:37:57;;;;;;;20.77;7.30;;;;;;;2.18;94.98;103408.47;5052985;28;20431;-54
2022/01/28 08:40:23;;;;;;;22.55;7.88;;;;;;;2.23;94.96;103416.09;5053028;28;20035;-52
2022/01/28 08:42:48;;;;;;;20.75;8.13;;;;;;;2.28;94.39;103410.91;5053238;28;20111;-54
2022/01/28 08:45:13;;;;;;;22.17;7.88;;;;;;;2.32;94.79;103406.78;5053190;28;20104;-53
2022/01/28 08:47:39;;;;;;;19.20;7.90;;;;;;;2.41;94.62;103423.09;5052995;28;20032;-53
2022/01/28 08:50:04;;;;;;;22.35;7.65;;;;;;;2.45;94.11;103408.88;5052993;28;20053;-52
2022/01/28 08:52:30;;;;;;;22.98;7.75;;;;;;;2.50;93.80;103398.19;5052454;28;20476;-52
2022/01/28 08:54:55;;;;;;;21.90;7.93;;;;;;;2.59;93.76;103409.06;5053020;28;20099;-51
2022/01/28 08:57:20;;;;;;;22.55;7.72;;;;;;;2.65;93.50;103416.50;5052766;28;20485;-54
2022/01/28 08:59:46;;;;;;;23.33;8.00;;;;;;;2.72;93.46;103428.38;5052864;28;20048;-53
2022/01/28 09:02:11;;;;;;;20.52;8.40;;;;;;;2.69;93.59;103426.03;5052458;28;20021;-53
2022/01/28 09:04:37;;;;;;;21.45;8.07;;;;;;;2.72;93.45;103425.63;5052389;28;20037;-54
2022/01/28 09:07:03;;;;;;;24.33;8.27;;;;;;;2.81;93.16;103429.94;5052854;28;20025;-53
2022/01/28 09:09:29;;;;;;;22.23;8.27;;;;;;;2.83;93.51;103421.59;5052919;28;20025;-52
2022/01/28 09:12:07;;;;;;;21.77;8.23;;;;;;;2.89;93.53;103415.34;5052701;28;20395;-52
2022/01/28 09:14:33;;;;;;;21.85;8.35;;;;;;;2.96;92.67;103415.44;5053422;28;20029;-52
2022/01/28 09:16:58;;;;;;;23.67;8.07;;;;;;;3.06;93.01;103409.66;5056864;28;20047;-53
2022/01/28 09:19:23;;;;;;;21.70;8.30;;;;;;;3.09;92.62;103407.38;5056003;28;20104;-53
2022/01/28 09:21:50;;;;;;;24.08;8.68;;;;;;;3.15;92.16;103413.13;5055869;28;20391;-53
2022/01/28 09:24:16;;;;;;;22.05;8.38;;;;;;;3.21;92.37;103417.81;5056449;28;20029;-52
2022/01/28 09:26:41;;;;;;;23.95;8.52;;;;;;;3.22;92.56;103425.81;5056579;28;20079;-52
2022/01/28 09:29:06;;;;;;;21.63;8.80;;;;;;;3.27;91.58;103433.44;5056318;28;20082;-51
2022/01/28 09:31:32;;;;;;;21.50;8.95;;;;;;;3.28;91.90;103419.59;5054721;28;20029;-51
2022/01/28 09:33:57;;;;;;;24.38;8.63;;;;;;;3.36;92.11;103426.81;5054956;28;20499;-54
2022/01/28 09:36:22;;;;;;;23.00;9.40;;;;;;;3.41;92.26;103428.97;5056532;28;20029;-54
2022/01/28 09:38:49;;;;;;;21.00;8.75;;;;;;;3.42;92.03;103434.28;5056349;28;20035;-54
2022/01/28 09:41:15;;;;;;;23.67;9.23;;;;;;;3.54;91.30;103431.84;5056527;28;20028;-54
2022/01/28 09:43:43;;;;;;;21.20;8.95;;;;;;;3.53;91.56;103426.59;5056204;28;20361;-52
2022/01/28 09:46:08;;;;;;;23.13;9.27;;;;;;;3.66;90.85;103437.66;5056227;28;20025;-51
2022/01/28 09:48:33;;;;;;;25.33;8.63;;;;;;;3.73;91.07;103437.72;5056270;28;20104;-52
2022/01/28 09:51:01;;;;;;;23.13;8.95;;;;;;;3.74;90.82;103442.16;5055925;28;20029;-53
2022/01/28 09:53:27;;;;;;;22.55;9.52;;;;;;;3.79;91.26;103445.16;5055815;28;20040;-50
2022/01/28 09:55:53;;;;;;;21.40;9.23;;;;;;;3.89;90.84;103453.03;5055917;28;20350;-51
2022/01/28 09:58:18;;;;;;;20.95;9.05;;;;;;;3.88;90.65;103454.91;5055758;28;20048;-53
2022/01/28 10:00:44;;;;;;;23.02;8.77;;;;;;;3.92;90.74;103460.84;5054416;28;20596;-53
2022/01/28 10:03:11;;;;;;;23.38;9.18;;;;;;;3.95;90.03;103452.25;5055511;28;20044;-53
2022/01/28 10:05:39;;;;;;;23.75;8.88;;;;;;;3.98;90.89;103460.06;5055883;28;20539;-53
2022/01/28 10:08:26;;;;;;;25.55;9.32;;;;;;;4.02;91.01;103455.88;5055429;28;20048;-53
2022/01/28 10:10:53;;;;;;;25.83;9.57;;;;;;;4.01;91.46;103446.00;5055748;28;20025;-55
2022/01/28 10:13:43;;;;;;;25.65;9.48;;;;;;;4.12;91.37;103469.25;5055740;28;20025;-52
2022/01/28 10:16:29;;;;;;;22.27;9.77;;;;;;;4.15;91.24;103455.19;5055549;28;20040;-53
2022/01/28 10:19:06;;;;;;;22.55;9.57;;;;;;;4.22;91.57;103461.53;5055683;28;20029;-53
2022/01/28 10:21:43;;;;;;;21.95;9.50;;;;;;;4.31;91.26;103467.72;5055511;28;20037;-52
2022/01/28 10:24:19;;;;;;;23.33;8.98;;;;;;;4.40;90.58;103468.41;5055559;28;20396;-51
2022/01/28 10:27:09;;;;;;;22.80;9.45;;;;;;;4.45;90.42;103468.66;5050441;28;20120;-54
2022/01/28 10:29:37;;;;;;;21.92;9.48;;;;;;;4.46;90.65;103453.91;5034968;28;20042;-49
2022/01/28 10:32:05;;;;;;;20.98;9.40;;;;;;;4.57;90.89;103471.72;5035071;28;20068;-51
2022/01/28 10:34:39;;;;;;;25.33;9.82;;;;;;;4.64;91.16;103467.09;5052885;28;20031;-54
2022/01/28 10:37:07;;;;;;;26.25;10.57;;;;;;;4.72;90.79;103465.25;5055110;28;20074;-51
2022/01/28 10:39:38;;;;;;;21.98;9.45;;;;;;;4.77;90.41;103469.06;5054836;28;20036;-52
2022/01/28 10:42:04;;;;;;;25.63;9.13;;;;;;;4.88;89.38;103480.53;5054455;28;20087;-51
2022/01/28 10:44:31;;;;;;;23.23;9.32;;;;;;;4.87;89.62;103468.69;5054888;28;20076;-52
2022/01/28 10:46:59;;;;;;;24.00;10.13;;;;;;;4.94;89.33;103472.34;5054983;28;20025;-50
2022/01/28 10:49:30;;;;;;;20.15;9.18;;;;;;;5.02;88.97;103460.31;5054792;28;20035;-53
2022/01/28 10:52:04;;;;;;;20.73;8.45;;;;;;;5.08;88.06;103469.63;5054754;28;20476;-51
2022/01/28 10:54:29;;;;;;;;;;;;;;;5.17;88.88;103460.19;5054759;28;20044;-53
2022/01/28 10:56:57;;;;;;;24.73;9.37;;;;;;;5.06;87.09;103442.41;5054418;28;19917;-54
2022/01/28 10:59:35;;;;;;;21.60;8.82;;;;;;;5.15;87.67;103443.06;5054583;28;20275;-54
2022/01/28 11:02:01;;;;;;;24.38;8.30;;;;;;;5.28;86.52;103453.28;5054506;28;20025;-54
2022/01/28 11:04:27;;;;;;;20.83;7.63;;;;;;;5.32;85.17;103446.28;5054556;28;20032;-54
2022/01/28 11:06:55;;;;;;;19.13;7.82;;;;;;;5.33;84.51;103445.25;5054394;28;20025;-53
2022/01/28 11:09:22;;;;;;;23.75;8.65;;;;;;;5.39;84.90;103444.41;5054311;28;20028;-53
2022/01/28 11:11:49;;;;;;;20.65;8.10;;;;;;;5.47;84.12;103448.88;5052973;28;20059;-53
2022/01/28 11:14:14;;;;;;;22.25;8.85;;;;;;;5.48;85.06;103436.84;5054081;28;20526;-51
2022/01/28 11:16:40;;;;;;;24.42;8.48;;;;;;;5.53;84.33;103428.81;5054251;28;20107;-52
2022/01/28 11:19:09;;;;;;;23.90;9.02;;;;;;;5.57;84.19;103423.78;5054032;28;20029;-53
2022/01/28 11:21:41;;;;;;;21.83;8.50;;;;;;;5.57;84.40;103416.38;5052604;28;20383;-52
2022/01/28 11:24:21;;;;;;;20.00;8.57;;;;;;;5.60;84.61;103410.47;5054177;28;20079;-53
2022/01/28 11:26:57;;;;;;;20.80;8.70;;;;;;;5.72;84.19;103410.69;5054214;28;20090;-51
2022/01/28 11:29:28;;;;;;;23.95;9.20;;;;;;;5.81;84.40;103408.56;5053030;28;20028;-54
2022/01/28 11:32:08;;;;;;;20.80;8.38;;;;;;;5.86;83.34;103395.06;5053252;28;20547;-53
2022/01/28 11:34:34;;;;;;;22.73;8.18;;;;;;;6.00;82.68;103393.19;5052091;28;20032;-53
2022/01/28 11:37:03;;;;;;;21.65;8.63;;;;;;;6.13;81.88;103397.81;5052957;28;20033;-52
2022/01/28 11:39:33;;;;;;;18.45;7.82;;;;;;;6.21;80.88;103385.75;5046142;28;20025;-52
2022/01/28 11:42:10;;;;;;;23.35;8.63;;;;;;;6.31;82.25;103383.41;5031592;28;20032;-53
2022/01/28 11:44:50;;;;;;;19.90;7.50;;;;;;;6.46;81.63;103393.31;5031611;28;20115;-53
2022/01/28 11:47:24;;;;;;;19.42;7.95;;;;;;;6.49;78.46;103387.38;5031654;28;20053;-54
2022/01/28 11:50:08;;;;;;;18.30;8.07;;;;;;;6.53;78.65;103392.25;5031426;28;20032;-50
2022/01/28 11:52:39;;;;;;;22.67;8.77;;;;;;;6.53;78.69;103383.13;5031429;28;20091;-53
2022/01/28 11:55:13;;;;;;;20.95;8.25;;;;;;;6.68;78.97;103391.13;5031093;28;20061;-51
2022/01/28 11:57:53;;;;;;;24.20;8.32;;;;;;;6.77;79.04;103389.81;5031506;28;20534;-53
2022/01/28 12:00:39;;;;;;;23.67;9.15;;;;;;;6.79;79.17;103382.19;5031395;28;20484;-50
2022/01/28 12:03:18;;;;;;;20.20;8.68;;;;;;;6.86;78.47;103379.41;5031504;28;20036;-51
2022/01/28 12:05:44;;;;;;;19.70;8.75;;;;;;;6.97;77.08;103387.00;5032375;28;20039;-53
2022/01/28 12:08:11;;;;;;;21.77;8.20;;;;;;;7.00;76.58;103391.22;5032331;28;20140;-52
2022/01/28 12:10:42;;;;;;;19.90;7.75;;;;;;;7.05;74.74;103393.31;5032401;28;20071;-51
2022/01/28 12:13:12;;;;;;;18.50;7.75;;;;;;;7.08;72.09;103395.63;5031647;28;20484;-53
2022/01/28 12:16:09;;;;;;;21.35;7.38;;;;;;;6.97;72.56;103383.38;5030987;28;20497;-53
2022/01/28 12:18:54;;;;;;;21.42;8.20;;;;;;;7.00;74.19;103374.69;5030914;28;20108;-52
2022/01/28 12:21:31;;;;;;;18.52;7.63;;;;;;;6.99;72.73;103375.75;5030946;28;20920;-52
2022/01/28 12:24:18;;;;;;;20.77;7.45;;;;;;;6.98;72.75;103366.66;5031036;28;20029;-51
2022/01/28 12:27:03;;;;;;;17.45;7.38;;;;;;;6.92;73.31;103364.78;5031185;28;20378;-53
2022/01/28 12:29:36;;;;;;;19.38;7.22;;;;;;;6.86;73.54;103357.41;5031096;28;20038;-54
2022/01/28 12:32:03;;;;;;;17.73;7.97;;;;;;;6.87;72.80;103350.84;5030986;28;20029;-54
2022/01/28 12:34:28;;;;;;;17.83;7.07;;;;;;;6.90;73.21;103353.13;5030695;28;20029;-51
2022/01/28 12:36:58;;;;;;;18.73;7.20;;;;;;;6.92;73.66;103341.94;5029284;28;20059;-54
2022/01/28 12:39:43;;;;;;;15.85;7.70;;;;;;;6.99;73.02;103343.56;5030701;28;20026;-52
2022/01/28 12:42:22;;;;;;;19.80;7.13;;;;;;;7.07;72.82;103333.38;5031007;28;20035;-50
2022/01/28 12:44:55;;;;;;;16.35;7.47;;;;;;;7.12;73.07;103328.03;5030988;28;20456;-51
2022/01/28 12:47:22;;;;;;;18.73;7.80;;;;;;;7.12;71.98;103337.16;5030982;28;20488;-49
2022/01/28 12:49:54;;;;;;;18.05;8.05;;;;;;;7.12;72.14;103320.63;5030581;28;20108;-53